sensor_id;sensor_type;location;lat;lon;timestamp;P1;durP1;ratioP1;P2;durP2;ratioP2
23608;SDS011;11982;50.810;4.442;2023-03-31T00:02:10;37.40;;;5.15;;
23608;SDS011;11982;50.810;4.442;2023-03-31T00:04:42;23.60;;;3.75;;
23608;SDS011;11982;50.810;4.442;2023-03-31T00:07:16;34.17;;;4.50;;
23608;SDS011;11982;50.810;4.442;2023-03-31T00:09:48;18.13;;;3.55;;
23608;SDS011;11982;50.810;4.442;2023-03-31T00:12:18;27.55;;;4.93;;
23608;SDS011;11982;50.810;4.442;2023-03-31T00:14:45;36.63;;;4.28;;
23608;SDS011;11982;50.810;4.442;2023-03-31T00:17:11;30.73;;;3.85;;
23608;SDS011;11982;50.810;4.442;2023-03-31T00:19:37;28.52;;;4.68;;
23608;SDS011;11982;50.810;4.442;2023-03-31T00:22:04;28.92;;;5.07;;
23608;SDS011;11982;50.810;4.442;2023-03-31T00:24:30;28.10;;;4.57;;
23608;SDS011;11982;50.810;4.442;2023-03-31T00:27:05;28.48;;;4.25;;
23608;SDS011;11982;50.810;4.442;2023-03-31T00:31:59;24.45;;;4.40;;
23608;SDS011;11982;50.810;4.442;2023-03-31T00:34:25;31.98;;;4.20;;
23608;SDS011;11982;50.810;4.442;2023-03-31T00:36:51;28.67;;;4.57;;
23608;SDS011;11982;50.810;4.442;2023-03-31T00:39:20;27.92;;;5.00;;
23608;SDS011;11982;50.810;4.442;2023-03-31T00:41:48;37.80;;;4.32;;
23608;SDS011;11982;50.810;4.442;2023-03-31T00:44:16;32.03;;;6.05;;
23608;SDS011;11982;50.810;4.442;2023-03-31T00:47:01;38.33;;;5.47;;
23608;SDS011;11982;50.810;4.442;2023-03-31T00:49:38;28.15;;;3.97;;
23608;SDS011;11982;50.810;4.442;2023-03-31T00:52:06;30.02;;;5.10;;
23608;SDS011;11982;50.810;4.442;2023-03-31T00:54:39;23.00;;;4.38;;
23608;SDS011;11982;50.810;4.442;2023-03-31T00:57:08;39.15;;;5.13;;
23608;SDS011;11982;50.810;4.442;2023-03-31T00:59:36;33.33;;;4.47;;
23608;SDS011;11982;50.810;4.442;2023-03-31T01:02:05;47.38;;;5.78;;
23608;SDS011;11982;50.810;4.442;2023-03-31T01:04:34;30.13;;;5.22;;
23608;SDS011;11982;50.810;4.442;2023-03-31T01:07:13;31.25;;;4.97;;
23608;SDS011;11982;50.810;4.442;2023-03-31T01:09:47;30.38;;;4.47;;
23608;SDS011;11982;50.810;4.442;2023-03-31T01:12:14;25.20;;;4.15;;
23608;SDS011;11982;50.810;4.442;2023-03-31T01:14:42;22.67;;;4.30;;
23608;SDS011;11982;50.810;4.442;2023-03-31T01:17:08;28.70;;;4.93;;
23608;SDS011;11982;50.810;4.442;2023-03-31T01:28:03;21.30;;;3.95;;
23608;SDS011;11982;50.810;4.442;2023-03-31T01:33:55;27.15;;;3.95;;
23608;SDS011;11982;50.810;4.442;2023-03-31T01:41:59;25.42;;;3.75;;
23608;SDS011;11982;50.810;4.442;2023-03-31T01:44:54;16.55;;;3.20;;
23608;SDS011;11982;50.810;4.442;2023-03-31T01:47:32;19.70;;;3.55;;
23608;SDS011;11982;50.810;4.442;2023-03-31T01:55:57;25.75;;;3.67;;
23608;SDS011;11982;50.810;4.442;2023-03-31T01:58:49;25.52;;;3.28;;
23608;SDS011;11982;50.810;4.442;2023-03-31T02:01:46;18.95;;;2.88;;
23608;SDS011;11982;50.810;4.442;2023-03-31T02:04:23;25.00;;;3.55;;
23608;SDS011;11982;50.810;4.442;2023-03-31T02:07:16;24.17;;;3.50;;
23608;SDS011;11982;50.810;4.442;2023-03-31T02:09:48;20.05;;;3.03;;
23608;SDS011;11982;50.810;4.442;2023-03-31T02:14:46;21.42;;;3.15;;
23608;SDS011;11982;50.810;4.442;2023-03-31T02:17:16;23.13;;;3.40;;
23608;SDS011;11982;50.810;4.442;2023-03-31T02:19:45;20.45;;;3.03;;
23608;SDS011;11982;50.810;4.442;2023-03-31T02:22:16;28.42;;;3.78;;
23608;SDS011;11982;50.810;4.442;2023-03-31T02:24:44;21.95;;;4.05;;
23608;SDS011;11982;50.810;4.442;2023-03-31T02:29:41;22.50;;;3.35;;
23608;SDS011;11982;50.810;4.442;2023-03-31T02:34:39;19.40;;;2.90;;
23608;SDS011;11982;50.810;4.442;2023-03-31T02:37:05;20.05;;;3.58;;
23608;SDS011;11982;50.810;4.442;2023-03-31T02:39:33;14.85;;;2.97;;
23608;SDS011;11982;50.810;4.442;2023-03-31T02:42:01;19.08;;;3.05;;
23608;SDS011;11982;50.810;4.442;2023-03-31T02:44:32;15.77;;;2.38;;
23608;SDS011;11982;50.810;4.442;2023-03-31T02:47:05;18.73;;;3.20;;
23608;SDS011;11982;50.810;4.442;2023-03-31T02:49:34;20.23;;;2.75;;
23608;SDS011;11982;50.810;4.442;2023-03-31T03:12:08;24.38;;;3.15;;
23608;SDS011;11982;50.810;4.442;2023-03-31T03:17:46;23.65;;;3.97;;
23608;SDS011;11982;50.810;4.442;2023-03-31T03:20:13;20.40;;;3.30;;
23608;SDS011;11982;50.810;4.442;2023-03-31T03:22:40;23.85;;;3.85;;
23608;SDS011;11982;50.810;4.442;2023-03-31T03:25:07;32.20;;;4.90;;
23608;SDS011;11982;50.810;4.442;2023-03-31T03:27:35;18.85;;;3.25;;
23608;SDS011;11982;50.810;4.442;2023-03-31T03:30:05;18.15;;;3.25;;
23608;SDS011;11982;50.810;4.442;2023-03-31T03:32:33;15.02;;;3.05;;
23608;SDS011;11982;50.810;4.442;2023-03-31T03:35:00;32.58;;;3.90;;
23608;SDS011;11982;50.810;4.442;2023-03-31T03:37:28;21.70;;;3.33;;
23608;SDS011;11982;50.810;4.442;2023-03-31T03:39:54;24.30;;;3.10;;
23608;SDS011;11982;50.810;4.442;2023-03-31T03:42:20;22.02;;;3.25;;
23608;SDS011;11982;50.810;4.442;2023-03-31T03:44:45;22.45;;;3.60;;
23608;SDS011;11982;50.810;4.442;2023-03-31T03:47:11;19.13;;;2.65;;
23608;SDS011;11982;50.810;4.442;2023-03-31T03:49:37;21.55;;;3.78;;
23608;SDS011;11982;50.810;4.442;2023-03-31T03:52:02;21.67;;;3.72;;
23608;SDS011;11982;50.810;4.442;2023-03-31T03:54:28;13.95;;;1.90;;
23608;SDS011;11982;50.810;4.442;2023-03-31T03:56:54;13.65;;;1.88;;
23608;SDS011;11982;50.810;4.442;2023-03-31T03:59:20;10.93;;;1.83;;
23608;SDS011;11982;50.810;4.442;2023-03-31T04:01:45;12.02;;;1.60;;
23608;SDS011;11982;50.810;4.442;2023-03-31T04:04:11;8.10;;;1.35;;
23608;SDS011;11982;50.810;4.442;2023-03-31T04:06:37;6.05;;;1.20;;
23608;SDS011;11982;50.810;4.442;2023-03-31T04:09:03;11.07;;;1.45;;
23608;SDS011;11982;50.810;4.442;2023-03-31T04:11:29;8.23;;;1.67;;
23608;SDS011;11982;50.810;4.442;2023-03-31T04:13:55;13.27;;;1.90;;
23608;SDS011;11982;50.810;4.442;2023-03-31T04:16:21;9.10;;;2.00;;
23608;SDS011;11982;50.810;4.442;2023-03-31T04:18:52;10.32;;;2.10;;
23608;SDS011;11982;50.810;4.442;2023-03-31T04:21:21;17.63;;;2.50;;
23608;SDS011;11982;50.810;4.442;2023-03-31T04:23:48;14.55;;;2.83;;
23608;SDS011;11982;50.810;4.442;2023-03-31T04:26:26;19.15;;;2.20;;
23608;SDS011;11982;50.810;4.442;2023-03-31T04:29:04;12.10;;;2.88;;
23608;SDS011;11982;50.810;4.442;2023-03-31T04:31:31;19.65;;;2.95;;
23608;SDS011;11982;50.810;4.442;2023-03-31T04:33:57;18.73;;;3.13;;
23608;SDS011;11982;50.810;4.442;2023-03-31T04:36:27;28.02;;;3.58;;
23608;SDS011;11982;50.810;4.442;2023-03-31T04:38:55;18.48;;;3.42;;
23608;SDS011;11982;50.810;4.442;2023-03-31T04:41:21;24.10;;;3.28;;
23608;SDS011;11982;50.810;4.442;2023-03-31T04:43:47;16.55;;;4.05;;
23608;SDS011;11982;50.810;4.442;2023-03-31T04:46:13;17.35;;;3.78;;
23608;SDS011;11982;50.810;4.442;2023-03-31T04:48:39;27.95;;;4.45;;
23608;SDS011;11982;50.810;4.442;2023-03-31T04:51:05;23.77;;;3.88;;
23608;SDS011;11982;50.810;4.442;2023-03-31T04:53:32;23.00;;;3.85;;
23608;SDS011;11982;50.810;4.442;2023-03-31T04:55:58;18.83;;;3.90;;
23608;SDS011;11982;50.810;4.442;2023-03-31T04:58:24;28.02;;;4.55;;
23608;SDS011;11982;50.810;4.442;2023-03-31T05:00:50;35.83;;;5.57;;
23608;SDS011;11982;50.810;4.442;2023-03-31T05:03:16;22.15;;;4.60;;
23608;SDS011;11982;50.810;4.442;2023-03-31T05:05:42;32.65;;;4.85;;
23608;SDS011;11982;50.810;4.442;2023-03-31T05:08:08;23.85;;;4.25;;
23608;SDS011;11982;50.810;4.442;2023-03-31T05:10:34;23.15;;;4.05;;
23608;SDS011;11982;50.810;4.442;2023-03-31T05:13:00;26.30;;;4.32;;
23608;SDS011;11982;50.810;4.442;2023-03-31T05:15:25;23.65;;;4.03;;
23608;SDS011;11982;50.810;4.442;2023-03-31T05:17:51;25.58;;;4.38;;
23608;SDS011;11982;50.810;4.442;2023-03-31T05:20:17;28.17;;;4.88;;
23608;SDS011;11982;50.810;4.442;2023-03-31T05:22:44;26.70;;;4.32;;
23608;SDS011;11982;50.810;4.442;2023-03-31T05:25:10;22.05;;;4.30;;
23608;SDS011;11982;50.810;4.442;2023-03-31T05:27:38;20.27;;;4.38;;
23608;SDS011;11982;50.810;4.442;2023-03-31T05:30:04;26.60;;;4.60;;
23608;SDS011;11982;50.810;4.442;2023-03-31T05:32:32;26.05;;;4.28;;
23608;SDS011;11982;50.810;4.442;2023-03-31T05:34:58;36.88;;;4.97;;
23608;SDS011;11982;50.810;4.442;2023-03-31T05:37:24;19.92;;;4.45;;
23608;SDS011;11982;50.810;4.442;2023-03-31T05:39:50;31.42;;;4.82;;
23608;SDS011;11982;50.810;4.442;2023-03-31T05:42:17;26.77;;;4.40;;
23608;SDS011;11982;50.810;4.442;2023-03-31T05:44:43;28.73;;;4.88;;
23608;SDS011;11982;50.810;4.442;2023-03-31T05:47:09;26.77;;;5.13;;
23608;SDS011;11982;50.810;4.442;2023-03-31T05:49:35;23.90;;;4.18;;
23608;SDS011;11982;50.810;4.442;2023-03-31T05:52:02;26.90;;;4.10;;
23608;SDS011;11982;50.810;4.442;2023-03-31T05:54:28;23.60;;;4.68;;
23608;SDS011;11982;50.810;4.442;2023-03-31T05:56:54;32.92;;;4.57;;
23608;SDS011;11982;50.810;4.442;2023-03-31T05:59:20;24.58;;;5.03;;
23608;SDS011;11982;50.810;4.442;2023-03-31T06:01:46;28.38;;;5.15;;
23608;SDS011;11982;50.810;4.442;2023-03-31T06:04:11;29.92;;;4.40;;
23608;SDS011;11982;50.810;4.442;2023-03-31T06:06:37;31.33;;;4.65;;
23608;SDS011;11982;50.810;4.442;2023-03-31T06:09:03;26.25;;;4.45;;
23608;SDS011;11982;50.810;4.442;2023-03-31T06:11:30;24.80;;;4.22;;
23608;SDS011;11982;50.810;4.442;2023-03-31T06:13:55;25.05;;;4.50;;
23608;SDS011;11982;50.810;4.442;2023-03-31T06:16:21;27.33;;;4.45;;
23608;SDS011;11982;50.810;4.442;2023-03-31T06:18:47;32.42;;;5.05;;
23608;SDS011;11982;50.810;4.442;2023-03-31T06:21:15;30.13;;;4.93;;
23608;SDS011;11982;50.810;4.442;2023-03-31T06:23:42;24.52;;;4.57;;
23608;SDS011;11982;50.810;4.442;2023-03-31T06:26:10;38.53;;;5.63;;
23608;SDS011;11982;50.810;4.442;2023-03-31T06:28:38;31.23;;;4.70;;
23608;SDS011;11982;50.810;4.442;2023-03-31T06:31:08;23.48;;;4.65;;
23608;SDS011;11982;50.810;4.442;2023-03-31T06:33:36;28.70;;;6.63;;
23608;SDS011;11982;50.810;4.442;2023-03-31T06:36:03;23.67;;;4.18;;
23608;SDS011;11982;50.810;4.442;2023-03-31T06:38:31;27.98;;;4.70;;
23608;SDS011;11982;50.810;4.442;2023-03-31T06:40:58;22.67;;;4.35;;
23608;SDS011;11982;50.810;4.442;2023-03-31T06:43:23;25.02;;;4.47;;
23608;SDS011;11982;50.810;4.442;2023-03-31T06:45:51;30.40;;;5.38;;
23608;SDS011;11982;50.810;4.442;2023-03-31T06:48:17;27.95;;;4.55;;
23608;SDS011;11982;50.810;4.442;2023-03-31T06:50:43;29.00;;;5.25;;
23608;SDS011;11982;50.810;4.442;2023-03-31T06:53:08;32.13;;;4.25;;
23608;SDS011;11982;50.810;4.442;2023-03-31T06:55:34;24.00;;;4.35;;
23608;SDS011;11982;50.810;4.442;2023-03-31T06:58:01;21.45;;;3.92;;
23608;SDS011;11982;50.810;4.442;2023-03-31T07:00:26;26.52;;;4.32;;
23608;SDS011;11982;50.810;4.442;2023-03-31T07:02:52;33.20;;;4.88;;
23608;SDS011;11982;50.810;4.442;2023-03-31T07:05:19;27.60;;;3.95;;
23608;SDS011;11982;50.810;4.442;2023-03-31T07:07:52;36.50;;;5.70;;
23608;SDS011;11982;50.810;4.442;2023-03-31T07:10:18;30.08;;;4.47;;
23608;SDS011;11982;50.810;4.442;2023-03-31T07:12:44;23.95;;;4.82;;
23608;SDS011;11982;50.810;4.442;2023-03-31T07:15:10;26.52;;;4.55;;
23608;SDS011;11982;50.810;4.442;2023-03-31T07:17:35;24.63;;;4.15;;
23608;SDS011;11982;50.810;4.442;2023-03-31T07:20:14;31.92;;;4.68;;
23608;SDS011;11982;50.810;4.442;2023-03-31T07:22:40;24.15;;;4.22;;
23608;SDS011;11982;50.810;4.442;2023-03-31T07:25:07;24.13;;;4.25;;
23608;SDS011;11982;50.810;4.442;2023-03-31T07:27:34;23.10;;;4.40;;
23608;SDS011;11982;50.810;4.442;2023-03-31T07:30:00;20.17;;;3.75;;
23608;SDS011;11982;50.810;4.442;2023-03-31T07:32:26;28.08;;;4.63;;
23608;SDS011;11982;50.810;4.442;2023-03-31T07:34:52;24.55;;;4.47;;
23608;SDS011;11982;50.810;4.442;2023-03-31T07:37:17;28.50;;;4.85;;
23608;SDS011;11982;50.810;4.442;2023-03-31T07:39:43;25.27;;;4.82;;
23608;SDS011;11982;50.810;4.442;2023-03-31T07:42:08;26.60;;;4.38;;
23608;SDS011;11982;50.810;4.442;2023-03-31T07:44:35;28.00;;;4.60;;
23608;SDS011;11982;50.810;4.442;2023-03-31T07:47:02;35.85;;;4.88;;
23608;SDS011;11982;50.810;4.442;2023-03-31T07:49:30;42.08;;;5.35;;
23608;SDS011;11982;50.810;4.442;2023-03-31T07:51:57;25.20;;;4.35;;
23608;SDS011;11982;50.810;4.442;2023-03-31T07:54:23;22.63;;;4.65;;
23608;SDS011;11982;50.810;4.442;2023-03-31T07:56:50;37.83;;;5.35;;
23608;SDS011;11982;50.810;4.442;2023-03-31T07:59:15;34.58;;;5.03;;
23608;SDS011;11982;50.810;4.442;2023-03-31T08:01:41;30.63;;;5.45;;
23608;SDS011;11982;50.810;4.442;2023-03-31T08:04:07;32.05;;;5.78;;
23608;SDS011;11982;50.810;4.442;2023-03-31T08:06:35;34.67;;;4.95;;
23608;SDS011;11982;50.810;4.442;2023-03-31T08:09:02;33.35;;;5.05;;
23608;SDS011;11982;50.810;4.442;2023-03-31T08:11:29;33.38;;;5.68;;
23608;SDS011;11982;50.810;4.442;2023-03-31T08:13:54;34.50;;;5.63;;
23608;SDS011;11982;50.810;4.442;2023-03-31T08:16:20;28.38;;;5.15;;
23608;SDS011;11982;50.810;4.442;2023-03-31T08:18:46;29.58;;;4.80;;
23608;SDS011;11982;50.810;4.442;2023-03-31T08:21:12;28.33;;;5.15;;
23608;SDS011;11982;50.810;4.442;2023-03-31T08:23:38;23.70;;;4.60;;
23608;SDS011;11982;50.810;4.442;2023-03-31T08:26:10;23.40;;;4.10;;
23608;SDS011;11982;50.810;4.442;2023-03-31T08:28:42;28.80;;;4.90;;
23608;SDS011;11982;50.810;4.442;2023-03-31T08:31:08;16.67;;;3.08;;
23608;SDS011;11982;50.810;4.442;2023-03-31T08:33:34;18.60;;;3.90;;
23608;SDS011;11982;50.810;4.442;2023-03-31T08:36:05;24.35;;;4.40;;
23608;SDS011;11982;50.810;4.442;2023-03-31T08:38:34;30.25;;;4.50;;
23608;SDS011;11982;50.810;4.442;2023-03-31T08:41:06;21.90;;;4.50;;
23608;SDS011;11982;50.810;4.442;2023-03-31T08:43:42;26.48;;;3.75;;
23608;SDS011;11982;50.810;4.442;2023-03-31T08:46:10;22.33;;;4.38;;
23608;SDS011;11982;50.810;4.442;2023-03-31T08:48:46;23.80;;;4.47;;
23608;SDS011;11982;50.810;4.442;2023-03-31T08:51:26;25.67;;;4.68;;
23608;SDS011;11982;50.810;4.442;2023-03-31T08:54:04;27.35;;;5.47;;
23608;SDS011;11982;50.810;4.442;2023-03-31T08:56:40;31.67;;;5.00;;
23608;SDS011;11982;50.810;4.442;2023-03-31T08:59:20;20.77;;;3.25;;
23608;SDS011;11982;50.810;4.442;2023-03-31T09:01:58;25.83;;;4.15;;
23608;SDS011;11982;50.810;4.442;2023-03-31T09:04:45;30.00;;;4.97;;
23608;SDS011;11982;50.810;4.442;2023-03-31T09:07:32;28.27;;;4.57;;
23608;SDS011;11982;50.810;4.442;2023-03-31T09:15:35;31.50;;;4.13;;
23608;SDS011;11982;50.810;4.442;2023-03-31T09:18:33;31.60;;;4.38;;
23608;SDS011;11982;50.810;4.442;2023-03-31T09:21:21;32.35;;;5.38;;
23608;SDS011;11982;50.810;4.442;2023-03-31T09:24:02;33.38;;;4.60;;
23608;SDS011;11982;50.810;4.442;2023-03-31T09:26:42;31.50;;;5.25;;
23608;SDS011;11982;50.810;4.442;2023-03-31T09:29:11;32.38;;;5.18;;
23608;SDS011;11982;50.810;4.442;2023-03-31T09:31:43;36.35;;;5.75;;
23608;SDS011;11982;50.810;4.442;2023-03-31T09:34:23;35.97;;;6.13;;
23608;SDS011;11982;50.810;4.442;2023-03-31T09:36:52;35.38;;;5.78;;
23608;SDS011;11982;50.810;4.442;2023-03-31T09:39:18;40.55;;;6.50;;
23608;SDS011;11982;50.810;4.442;2023-03-31T09:41:44;44.15;;;5.50;;
23608;SDS011;11982;50.810;4.442;2023-03-31T09:44:20;30.80;;;4.88;;
23608;SDS011;11982;50.810;4.442;2023-03-31T09:46:52;28.70;;;4.22;;
23608;SDS011;11982;50.810;4.442;2023-03-31T09:49:20;37.72;;;5.88;;
23608;SDS011;11982;50.810;4.442;2023-03-31T09:51:59;24.45;;;4.03;;
23608;SDS011;11982;50.810;4.442;2023-03-31T09:54:32;30.35;;;5.72;;
23608;SDS011;11982;50.810;4.442;2023-03-31T09:57:01;29.77;;;4.82;;
23608;SDS011;11982;50.810;4.442;2023-03-31T09:59:33;36.00;;;4.88;;
23608;SDS011;11982;50.810;4.442;2023-03-31T10:05:04;38.80;;;5.63;;
23608;SDS011;11982;50.810;4.442;2023-03-31T10:07:32;44.30;;;6.15;;
23608;SDS011;11982;50.810;4.442;2023-03-31T10:09:58;42.72;;;6.13;;
23608;SDS011;11982;50.810;4.442;2023-03-31T10:12:27;38.58;;;5.88;;
23608;SDS011;11982;50.810;4.442;2023-03-31T10:15:00;41.42;;;5.40;;
23608;SDS011;11982;50.810;4.442;2023-03-31T10:17:40;35.42;;;4.93;;
23608;SDS011;11982;50.810;4.442;2023-03-31T10:20:26;32.83;;;4.53;;
23608;SDS011;11982;50.810;4.442;2023-03-31T10:23:01;35.65;;;5.00;;
23608;SDS011;11982;50.810;4.442;2023-03-31T10:25:28;32.35;;;5.45;;
23608;SDS011;11982;50.810;4.442;2023-03-31T10:27:55;36.25;;;5.25;;
23608;SDS011;11982;50.810;4.442;2023-03-31T10:30:23;33.78;;;5.03;;
23608;SDS011;11982;50.810;4.442;2023-03-31T10:32:50;27.38;;;4.43;;
23608;SDS011;11982;50.810;4.442;2023-03-31T10:35:23;32.80;;;5.45;;
23608;SDS011;11982;50.810;4.442;2023-03-31T10:37:55;28.70;;;4.53;;
23608;SDS011;11982;50.810;4.442;2023-03-31T10:40:34;24.88;;;4.28;;
23608;SDS011;11982;50.810;4.442;2023-03-31T10:43:17;22.05;;;4.20;;
23608;SDS011;11982;50.810;4.442;2023-03-31T10:46:04;24.17;;;3.88;;
23608;SDS011;11982;50.810;4.442;2023-03-31T10:48:31;36.90;;;5.43;;
23608;SDS011;11982;50.810;4.442;2023-03-31T10:51:21;35.10;;;5.22;;
23608;SDS011;11982;50.810;4.442;2023-03-31T10:53:51;28.83;;;4.28;;
23608;SDS011;11982;50.810;4.442;2023-03-31T11:13:23;29.98;;;5.38;;
23608;SDS011;11982;50.810;4.442;2023-03-31T11:40:21;26.98;;;4.60;;
23608;SDS011;11982;50.810;4.442;2023-03-31T11:43:05;24.00;;;3.88;;
23608;SDS011;11982;50.810;4.442;2023-03-31T11:51:08;25.92;;;3.72;;
23608;SDS011;11982;50.810;4.442;2023-03-31T11:53:48;19.23;;;3.67;;
23608;SDS011;11982;50.810;4.442;2023-03-31T11:56:17;20.42;;;3.22;;
23608;SDS011;11982;50.810;4.442;2023-03-31T11:58:48;26.73;;;4.05;;
23608;SDS011;11982;50.810;4.442;2023-03-31T12:01:23;15.55;;;2.88;;
23608;SDS011;11982;50.810;4.442;2023-03-31T12:06:35;22.60;;;3.65;;
23608;SDS011;11982;50.810;4.442;2023-03-31T12:09:15;25.58;;;4.22;;
23608;SDS011;11982;50.810;4.442;2023-03-31T12:17:38;25.42;;;4.28;;
23608;SDS011;11982;50.810;4.442;2023-03-31T12:20:11;23.38;;;4.10;;
23608;SDS011;11982;50.810;4.442;2023-03-31T12:22:46;26.40;;;3.63;;
23608;SDS011;11982;50.810;4.442;2023-03-31T12:25:14;18.58;;;3.72;;
23608;SDS011;11982;50.810;4.442;2023-03-31T12:27:46;17.77;;;2.75;;
23608;SDS011;11982;50.810;4.442;2023-03-31T12:32:57;16.08;;;3.17;;
23608;SDS011;11982;50.810;4.442;2023-03-31T12:53:45;11.07;;;2.85;;
23608;SDS011;11982;50.810;4.442;2023-03-31T12:56:14;10.85;;;1.90;;
23608;SDS011;11982;50.810;4.442;2023-03-31T12:58:41;13.88;;;2.50;;
23608;SDS011;11982;50.810;4.442;2023-03-31T13:11:40;5.03;;;0.90;;
23608;SDS011;11982;50.810;4.442;2023-03-31T13:16:47;4.35;;;1.08;;
23608;SDS011;11982;50.810;4.442;2023-03-31T13:19:33;7.15;;;1.13;;
23608;SDS011;11982;50.810;4.442;2023-03-31T13:22:01;4.22;;;0.98;;
23608;SDS011;11982;50.810;4.442;2023-03-31T13:24:29;6.07;;;1.10;;
23608;SDS011;11982;50.810;4.442;2023-03-31T13:29:58;6.75;;;1.15;;
23608;SDS011;11982;50.810;4.442;2023-03-31T13:32:24;7.68;;;1.55;;
23608;SDS011;11982;50.810;4.442;2023-03-31T13:45:53;5.75;;;1.10;;
23608;SDS011;11982;50.810;4.442;2023-03-31T14:02:04;3.80;;;0.83;;
23608;SDS011;11982;50.810;4.442;2023-03-31T14:07:54;2.88;;;0.80;;
23608;SDS011;11982;50.810;4.442;2023-03-31T14:10:30;1.15;;;0.65;;
23608;SDS011;11982;50.810;4.442;2023-03-31T14:15:35;1.90;;;0.60;;
23608;SDS011;11982;50.810;4.442;2023-03-31T14:18:03;4.53;;;0.55;;
23608;SDS011;11982;50.810;4.442;2023-03-31T14:23:20;3.08;;;0.82;;
23608;SDS011;11982;50.810;4.442;2023-03-31T14:31:33;4.60;;;0.90;;
23608;SDS011;11982;50.810;4.442;2023-03-31T14:36:44;3.05;;;0.70;;
23608;SDS011;11982;50.810;4.442;2023-03-31T14:39:23;4.60;;;0.70;;
23608;SDS011;11982;50.810;4.442;2023-03-31T14:41:52;3.63;;;0.60;;
23608;SDS011;11982;50.810;4.442;2023-03-31T14:44:30;3.92;;;0.95;;
23608;SDS011;11982;50.810;4.442;2023-03-31T14:46:58;4.90;;;0.75;;
23608;SDS011;11982;50.810;4.442;2023-03-31T14:49:25;1.50;;;0.60;;
23608;SDS011;11982;50.810;4.442;2023-03-31T14:51:59;3.70;;;1.05;;
23608;SDS011;11982;50.810;4.442;2023-03-31T14:54:35;1.73;;;0.50;;
23608;SDS011;11982;50.810;4.442;2023-03-31T14:57:02;1.90;;;0.50;;
23608;SDS011;11982;50.810;4.442;2023-03-31T14:59:30;2.83;;;0.70;;
23608;SDS011;11982;50.810;4.442;2023-03-31T15:01:58;3.55;;;1.05;;
23608;SDS011;11982;50.810;4.442;2023-03-31T15:04:27;3.50;;;1.02;;
23608;SDS011;11982;50.810;4.442;2023-03-31T15:06:54;5.95;;;1.40;;
23608;SDS011;11982;50.810;4.442;2023-03-31T15:09:33;5.93;;;0.90;;
23608;SDS011;11982;50.810;4.442;2023-03-31T15:12:03;2.22;;;0.57;;
23608;SDS011;11982;50.810;4.442;2023-03-31T15:14:33;1.85;;;0.60;;
23608;SDS011;11982;50.810;4.442;2023-03-31T15:17:02;4.35;;;0.82;;
23608;SDS011;11982;50.810;4.442;2023-03-31T15:19:29;4.93;;;0.50;;
23608;SDS011;11982;50.810;4.442;2023-03-31T15:22:11;2.35;;;0.63;;
23608;SDS011;11982;50.810;4.442;2023-03-31T15:24:42;3.05;;;0.85;;
23608;SDS011;11982;50.810;4.442;2023-03-31T15:27:20;5.88;;;1.10;;
23608;SDS011;11982;50.810;4.442;2023-03-31T15:30:06;3.50;;;0.47;;
23608;SDS011;11982;50.810;4.442;2023-03-31T15:32:41;4.95;;;0.85;;
23608;SDS011;11982;50.810;4.442;2023-03-31T15:37:59;5.75;;;1.60;;
23608;SDS011;11982;50.810;4.442;2023-03-31T15:40:31;4.28;;;1.02;;
23608;SDS011;11982;50.810;4.442;2023-03-31T15:50:57;4.00;;;1.05;;
23608;SDS011;11982;50.810;4.442;2023-03-31T15:53:37;5.30;;;1.27;;
23608;SDS011;11982;50.810;4.442;2023-03-31T15:59:04;11.27;;;1.70;;
23608;SDS011;11982;50.810;4.442;2023-03-31T16:01:45;7.00;;;1.10;;
23608;SDS011;11982;50.810;4.442;2023-03-31T16:04:13;6.45;;;1.25;;
23608;SDS011;11982;50.810;4.442;2023-03-31T16:09:49;11.00;;;1.90;;
23608;SDS011;11982;50.810;4.442;2023-03-31T16:17:31;5.43;;;1.02;;
23608;SDS011;11982;50.810;4.442;2023-03-31T16:20:05;8.38;;;1.77;;
23608;SDS011;11982;50.810;4.442;2023-03-31T16:22:38;9.40;;;1.67;;
23608;SDS011;11982;50.810;4.442;2023-03-31T16:25:08;11.68;;;2.00;;
23608;SDS011;11982;50.810;4.442;2023-03-31T16:27:39;6.95;;;1.08;;
23608;SDS011;11982;50.810;4.442;2023-03-31T16:30:10;14.90;;;1.95;;
23608;SDS011;11982;50.810;4.442;2023-03-31T16:35:39;7.80;;;1.98;;
23608;SDS011;11982;50.810;4.442;2023-03-31T16:38:10;5.28;;;1.50;;
23608;SDS011;11982;50.810;4.442;2023-03-31T16:40:47;7.13;;;1.67;;
23608;SDS011;11982;50.810;4.442;2023-03-31T16:43:18;10.88;;;2.72;;
23608;SDS011;11982;50.810;4.442;2023-03-31T16:45:50;8.77;;;1.02;;
23608;SDS011;11982;50.810;4.442;2023-03-31T16:48:21;8.85;;;1.52;;
23608;SDS011;11982;50.810;4.442;2023-03-31T16:50:49;10.73;;;1.90;;
23608;SDS011;11982;50.810;4.442;2023-03-31T16:53:17;7.07;;;1.80;;
23608;SDS011;11982;50.810;4.442;2023-03-31T16:58:37;9.10;;;1.85;;
23608;SDS011;11982;50.810;4.442;2023-03-31T17:01:04;8.27;;;1.88;;
23608;SDS011;11982;50.810;4.442;2023-03-31T17:03:31;6.60;;;2.40;;
23608;SDS011;11982;50.810;4.442;2023-03-31T17:06:02;11.70;;;2.55;;
23608;SDS011;11982;50.810;4.442;2023-03-31T17:08:33;7.53;;;1.45;;
23608;SDS011;11982;50.810;4.442;2023-03-31T17:11:03;8.77;;;2.05;;
23608;SDS011;11982;50.810;4.442;2023-03-31T17:13:31;12.45;;;2.47;;
23608;SDS011;11982;50.810;4.442;2023-03-31T17:15:57;9.10;;;1.60;;
23608;SDS011;11982;50.810;4.442;2023-03-31T17:18:24;13.65;;;2.17;;
23608;SDS011;11982;50.810;4.442;2023-03-31T17:20:50;14.73;;;2.22;;
23608;SDS011;11982;50.810;4.442;2023-03-31T17:23:26;14.07;;;2.50;;
23608;SDS011;11982;50.810;4.442;2023-03-31T17:25:52;9.98;;;2.10;;
23608;SDS011;11982;50.810;4.442;2023-03-31T17:28:18;11.57;;;2.55;;
23608;SDS011;11982;50.810;4.442;2023-03-31T17:30:44;13.65;;;2.33;;
23608;SDS011;11982;50.810;4.442;2023-03-31T17:33:12;15.38;;;2.00;;
23608;SDS011;11982;50.810;4.442;2023-03-31T17:35:39;12.90;;;3.42;;
23608;SDS011;11982;50.810;4.442;2023-03-31T17:38:05;17.02;;;3.83;;
23608;SDS011;11982;50.810;4.442;2023-03-31T17:40:33;19.30;;;3.53;;
23608;SDS011;11982;50.810;4.442;2023-03-31T17:42:59;22.23;;;3.85;;
23608;SDS011;11982;50.810;4.442;2023-03-31T17:45:26;27.92;;;4.95;;
23608;SDS011;11982;50.810;4.442;2023-03-31T17:47:53;21.70;;;3.88;;
23608;SDS011;11982;50.810;4.442;2023-03-31T17:50:19;20.35;;;3.55;;
23608;SDS011;11982;50.810;4.442;2023-03-31T17:52:45;22.90;;;4.90;;
23608;SDS011;11982;50.810;4.442;2023-03-31T17:55:11;26.42;;;4.05;;
23608;SDS011;11982;50.810;4.442;2023-03-31T17:57:38;25.45;;;4.20;;
23608;SDS011;11982;50.810;4.442;2023-03-31T18:05:47;21.85;;;3.70;;
23608;SDS011;11982;50.810;4.442;2023-03-31T18:08:15;26.83;;;4.40;;
23608;SDS011;11982;50.810;4.442;2023-03-31T18:10:43;27.58;;;4.68;;
23608;SDS011;11982;50.810;4.442;2023-03-31T18:13:10;16.77;;;3.45;;
23608;SDS011;11982;50.810;4.442;2023-03-31T18:15:35;27.98;;;4.32;;
23608;SDS011;11982;50.810;4.442;2023-03-31T18:18:02;21.85;;;2.83;;
23608;SDS011;11982;50.810;4.442;2023-03-31T18:20:28;25.13;;;4.32;;
23608;SDS011;11982;50.810;4.442;2023-03-31T18:22:54;27.33;;;3.67;;
23608;SDS011;11982;50.810;4.442;2023-03-31T18:25:20;22.30;;;4.80;;
23608;SDS011;11982;50.810;4.442;2023-03-31T18:27:46;38.10;;;4.63;;
23608;SDS011;11982;50.810;4.442;2023-03-31T18:30:13;26.58;;;4.28;;
23608;SDS011;11982;50.810;4.442;2023-03-31T18:32:38;24.13;;;4.00;;
23608;SDS011;11982;50.810;4.442;2023-03-31T18:35:06;32.85;;;4.45;;
23608;SDS011;11982;50.810;4.442;2023-03-31T18:37:32;28.90;;;4.75;;
23608;SDS011;11982;50.810;4.442;2023-03-31T18:39:58;22.70;;;4.10;;
23608;SDS011;11982;50.810;4.442;2023-03-31T18:42:24;36.38;;;4.90;;
23608;SDS011;11982;50.810;4.442;2023-03-31T18:44:53;31.17;;;4.75;;